Terminal Aerodrome Forecast
Issued by NWS

Home | Current Version | Previous Version | Text Only | Print | Product List | Glossary On
Versions: 1 2 3 4 5 6 7 8 9 10 11 12 13 14 15 16 17 18 19 20 21 22 23 24 25 26 27 28
000
FTUS41 KALY 021100 RRA
TAFPSF
TAF
KPSF 021141Z 0212/0312 VRB03KT 1/2SM FG BKN002 OVC030
      TEMPO 0212/0213 5SM BR SCT002 BKN030
     FM021400 23007KT P6SM SCT070
     FM022200 24008KT P6SM VCSH BKN050 BKN100 PROB30 0222/0304 3SM
      -TSRA BR OVC020CB
     FM030400 29007KT P6SM VCSH OVC045
     FM030700 28005KT 5SM BR BKN015=

USA.gov is the U.S. government's official web portal to all federal, state and local government web resources and services.